This is the latest recevied weather packets stored in our database for station/object N3MFL. If no packets are shown the sender has not sent any weather packets the latest 10 day(s).
| Time | Temp. | Humidity | Pressure | Rain* | Wind** | Luminosity | Snow |
|---|---|---|---|---|---|---|---|
| 1777863203 | 1.67° C | 78% | 1011.5 hPa | 0 mm | - | 0 W/m² | - |
| 1777847744 | 11.67° C | 37% | 1009 hPa | 0 mm | - | 54 W/m² | - |
| 1777844716 | 11.67° C | 38% | 1008.5 hPa | 0 mm | - | 82 W/m² | - |
| 1777840477 | 12.22° C | 38% | 1007.3 hPa | 0 mm | - | 149 W/m² | - |
| 1777839872 | 12.78° C | 41% | 1007.3 hPa | 0 mm | - | 214 W/m² | - |
| 1777839570 | 12.22° C | 38% | 1007.4 hPa | 0 mm | - | 205 W/m² | - |
| 1777839267 | 12.22° C | 39% | 1007.3 hPa | 0 mm | - | 178 W/m² | - |
| 1777837448 | 12.78° C | 39% | 1006.9 hPa | 0 mm | - | 224 W/m² | - |
| 1777836535 | 12.22° C | 40% | 1007.1 hPa | 0 mm | - | 236 W/m² | - |
| 1777833196 | 11.67° C | 42% | 1007.2 hPa | 0 mm | - | 81 W/m² | - |
| 1777832893 | 11.67° C | 42% | 1007.2 hPa | 0 mm | - | 111 W/m² | - |
| 1777832592 | 12.22° C | 42% | 1007.2 hPa | 0 mm | - | 137 W/m² | - |
| 1777831986 | 12.22° C | 41% | 1007.1 hPa | 0 mm | - | 287 W/m² | - |
| 1777831682 | 11.67° C | 45% | 1007.1 hPa | 0 mm | - | 306 W/m² | - |
| 1777828049 | 11.11° C | 48% | 1007.4 hPa | 0 mm | - | 310 W/m² | - |
| 1777827443 | 10.56° C | 49% | 1007.3 hPa | 0 mm | - | 241 W/m² | - |
| 1777827140 | 10.56° C | 47% | 1007.4 hPa | 0 mm | - | 240 W/m² | - |
| 1777826534 | 10.56° C | 51% | 1007.2 hPa | 0 mm | - | 297 W/m² | - |
| 1777825928 | 10.56° C | 53% | 1007.4 hPa | 0 mm | - | 385 W/m² | - |
| 1777825624 | 10.56° C | 57% | 1007.5 hPa | 0 mm | - | 306 W/m² | - |
| 1777825322 | 10° C | 60% | 1007.4 hPa | 0 mm | - | 352 W/m² | - |
| 1777825018 | 10° C | 61% | 1007.3 hPa | 0 mm | - | 340 W/m² | - |
| 1777824412 | 8.89° C | 63% | 1007.6 hPa | 0 mm | - | 303 W/m² | - |
| 1777824107 | 8.33° C | 66% | 1007.5 hPa | 0 mm | - | 165 W/m² | - |
| 1777823804 | 8.33° C | 66% | 1007.3 hPa | 0 mm | - | 104 W/m² | - |
* Rain latest hour (hover to see other rain measurements)
** Current wind speed in m/s (hover to see current wind gust speed)